Norwegian Jade — C6WK7 — position and weather

sailwx.info

Track history (hours):
 
Tides and Currents Weather Stations Pressure Air Temp Water Temp Dewpoint Dewpoint Depression Visibility Wind Speed Wind Dir Waves Ship Positions

Norwegian Jade

Last reported at 2019-Oct-17 15:00 UTC. Time now 2019-Oct-17 15:07 UTC.
Position N 37°29' E 025°17'.

Length 294 m; draft 8.6 m.

Type: Passenger vessel. MMSI: 308416000.

Date/timePositionNaut miles runAvg speedWind from/ knotsBaromVisibWave heightAir tempDewpointWater temp
2019-Oct-17 15:00N 37°29' E 025°17'2 3.8
2019-Oct-17 14:26N 37°28' E 025°19'0 0.0
2019-Oct-17 13:59N 37°28' E 025°19'0 0.0
2019-Oct-17 13:26N 37°28' E 025°19'0 0.0
2019-Oct-17 12:56N 37°28' E 025°19'0 0.0
2019-Oct-17 12:29N 37°28' E 025°19'0 0.0
2019-Oct-17 11:56N 37°28' E 025°19'0 0.0
2019-Oct-17 11:29N 37°28' E 025°19'0 0.0
2019-Oct-17 10:53N 37°28' E 025°19'0 0.0
2019-Oct-17 10:26N 37°28' E 025°19'0 0.0
2019-Oct-17 09:59N 37°28' E 025°19'0 0.0
2019-Oct-17 09:29N 37°28' E 025°19'0 0.0
2019-Oct-17 08:56N 37°28' E 025°19'0 0.0
2019-Oct-17 08:29N 37°28' E 025°19'0 0.0
2019-Oct-17 07:59N 37°28' E 025°19'0 0.0
2019-Oct-17 07:26N 37°28' E 025°19'0 0.0
2019-Oct-17 06:59N 37°28' E 025°19'0 0.0
2019-Oct-17 06:29N 37°28' E 025°19'0 0.0
2019-Oct-17 05:59N 37°28' E 025°19'0 0.0
2019-Oct-17 05:29N 37°28' E 025°19'0 0.0
2019-Oct-17 04:59N 37°28' E 025°19'0 0.0
2019-Oct-17 04:26N 37°28' E 025°19'0 0.0
2019-Oct-17 04:00N 37°28' E 025°19'1 2.6
2019-Oct-17 03:30N 37°27' E 025°18'5 9.6
2019-Oct-17 03:00N 37°29' E 025°12'510.3
2019-Oct-17 02:30N 37°30' E 025°06'5 9.5
2019-Oct-17 02:00N 37°31' E 024°60'510.0
2019-Oct-17 01:30N 37°32' E 024°54'4 8.6
2019-Oct-17 01:00N 37°32' E 024°49'27 8.7
2019-Oct-16 21:56N 37°29' E 024°15'13 7.7
2019-Oct-16 20:13N 37°33' E 023°59'2 7.6
2019-Oct-16 19:56N 37°33' E 023°57'3 7.9
2019-Oct-16 19:30N 37°35' E 023°53'4 8.2
2019-Oct-16 19:00N 37°37' E 023°48'4 8.1
2019-Oct-16 18:30N 37°39' E 023°44'4 7.8
2019-Oct-16 18:00N 37°42' E 023°41'4 8.2
2019-Oct-16 17:30N 37°46' E 023°39'4 8.0
2019-Oct-16 17:00N 37°50' E 023°37'4 7.9
2019-Oct-16 16:30N 37°54' E 023°37'3 6.1
2019-Oct-16 16:00N 37°56' E 023°38'0 0.4
2019-Oct-16 15:29N 37°56' E 023°38'0 0.0
2019-Oct-16 14:59N 37°56' E 023°38'0 0.0
2019-Oct-16 14:29N 37°56' E 023°38'0 0.0
2019-Oct-16 13:59N 37°56' E 023°38'0 0.0
2019-Oct-16 13:29N 37°56' E 023°38'0 0.0
2019-Oct-16 12:59N 37°56' E 023°38'0 0.0
2019-Oct-16 12:29N 37°56' E 023°38'0 0.0
2019-Oct-16 11:59N 37°56' E 023°38'0 0.0
2019-Oct-16 11:26N 37°56' E 023°38'0 0.0
2019-Oct-16 09:35N 37°56' E 023°38'0 0.0
2019-Oct-16 05:47N 37°56' E 023°38'0 0.0
2019-Oct-16 05:29N 37°56' E 023°38'0 0.0
2019-Oct-16 04:59N 37°56' E 023°38'0 0.0
2019-Oct-16 04:26N 37°56' E 023°38'0 0.0
2019-Oct-16 03:59N 37°56' E 023°38'0 0.1
2019-Oct-16 03:31N 37°56' E 023°38'2 3.4
2019-Oct-16 03:01N 37°55' E 023°37'4 8.6
2019-Oct-16 02:31N 37°51' E 023°39'5 9.5
2019-Oct-16 02:01N 37°47' E 023°42'714.7
2019-Oct-16 01:31N 37°40' E 023°45'816.8
2019-Oct-16 01:00N 37°32' E 023°47'916.2
2019-Oct-16 00:26N 37°24' E 023°53'375 9.2
2019-Oct-14 07:38N 37°49' E 016°01'320.0
2019-Oct-14 07:30N 37°50' E 015°58'1020.1
2019-Oct-14 07:00N 37°52' E 015°45'1020.2
2019-Oct-14 06:30N 37°57' E 015°34'1019.8
2019-Oct-14 06:00N 38°07' E 015°35'917.7
2019-Oct-14 05:30N 38°15' E 015°38'917.5
2019-Oct-14 05:00N 38°24' E 015°37'1120.9
2019-Oct-14 04:30N 38°33' E 015°31'1019.3
2019-Oct-14 04:00N 38°41' E 015°25'1019.8
2019-Oct-14 03:30N 38°51' E 015°20'1020.0
2019-Oct-14 03:00N 38°58' E 015°12'8319.7
2019-Oct-13 22:46N 39°57' E 013°56'4222.7
2019-Oct-13 20:56N 40°27' E 013°18'2123.3
2019-Oct-13 20:01N 40°42' E 012°58'100 5.7
2019-Oct-13 02:20N 42°02' E 011°37'616.8
2019-Oct-13 02:00N 42°02' E 011°30'1017.0
2019-Oct-13 01:26N 42°03' E 011°17'717.2
2019-Oct-13 01:01N 42°04' E 011°07'917.0
2019-Oct-13 00:30N 42°07' E 010°57'1517.1
2019-Oct-12 23:36N 42°18' E 010°42'417.1
2019-Oct-12 23:24N 42°21' E 010°39'717.3
2019-Oct-12 22:58N 42°26' E 010°32'916.8
2019-Oct-12 22:24N 42°32' E 010°22'717.0
2019-Oct-12 22:01N 42°37' E 010°15'1316.7
2019-Oct-12 21:13N 42°44' E 010°01'417.1
2019-Oct-12 21:00N 42°48' E 010°01'917.3
2019-Oct-12 20:30N 42°57' E 010°03'917.4
2019-Oct-12 20:00N 43°05' E 010°05'917.4
2019-Oct-12 19:30N 43°14' E 010°07'816.9
2019-Oct-12 19:01N 43°22' E 010°09'815.9
2019-Oct-12 18:30N 43°30' E 010°11'5 9.9
2019-Oct-12 18:00N 43°32' E 010°17'1 1.5
2019-Oct-12 17:30N 43°33' E 010°18'0 0.0
2019-Oct-12 17:00N 43°33' E 010°18'0 0.0
2019-Oct-12 16:30N 43°33' E 010°18'0 0.0
2019-Oct-12 16:00N 43°33' E 010°18'0 0.0
2019-Oct-12 15:30N 43°33' E 010°18'0 0.0
2019-Oct-12 15:00N 43°33' E 010°18'0 0.0
2019-Oct-12 14:30N 43°33' E 010°18'0 0.0
2019-Oct-12 14:00N 43°33' E 010°18'0 0.0
2019-Oct-12 13:30N 43°33' E 010°18'0 0.0
2019-Oct-12 13:00N 43°33' E 010°18'0 0.0
2019-Oct-12 12:30N 43°33' E 010°18'0 0.0
2019-Oct-12 12:00N 43°33' E 010°18'0 0.0
2019-Oct-12 11:30N 43°33' E 010°18'0 0.0
2019-Oct-12 11:00N 43°33' E 010°18'0 0.0
2019-Oct-12 10:30N 43°33' E 010°18'0 0.0
2019-Oct-12 10:00N 43°33' E 010°18'0 0.0
2019-Oct-12 09:30N 43°33' E 010°18'0 0.0
2019-Oct-12 09:00N 43°33' E 010°18'0 0.0
2019-Oct-12 08:30N 43°33' E 010°18'0 0.0
2019-Oct-12 08:00N 43°33' E 010°18'0 0.0
2019-Oct-12 07:30N 43°33' E 010°18'0 0.0
2019-Oct-12 07:00N 43°33' E 010°18'0 0.1
2019-Oct-12 06:30N 43°33' E 010°18'2 3.9
2019-Oct-12 06:00N 43°32' E 010°16'0 0.8
2019-Oct-12 05:30N 43°31' E 010°15'612.2
2019-Oct-12 05:01N 43°26' E 010°12'917.5
2019-Oct-12 04:31N 43°17' E 010°09'917.4
2019-Oct-12 04:00N 43°09' E 010°07'816.8
2019-Oct-12 03:30N 43°01' E 010°05'918.4
2019-Oct-12 03:01N 42°51' E 010°03'1019.5
2019-Oct-12 02:31N 42°42' E 010°06'1020.5
2019-Oct-12 02:01N 42°35' E 010°16'1120.6
2019-Oct-12 01:29N 42°28' E 010°28'1020.3
2019-Oct-12 01:01N 42°22' E 010°37'1120.8
2019-Oct-12 00:29N 42°14' E 010°47'15122.1
2019-Oct-11 17:40N 40°39' E 013°24'2122.9
2019-Oct-11 16:46N 40°39' E 013°51'521.5
2019-Oct-11 16:30N 40°39' E 013°58'1019.3
2019-Oct-11 16:00N 40°43' E 014°10'816.9
2019-Oct-11 15:30N 40°50' E 014°17'1 1.8
2019-Oct-11 14:58N 40°50' E 014°16'0 0.0
2019-Oct-11 14:28N 40°50' E 014°16'0 0.0
2019-Oct-11 13:58N 40°50' E 014°16'0 0.0
2019-Oct-11 13:25N 40°50' E 014°16'0 0.0
2019-Oct-11 12:58N 40°50' E 014°16'0 0.0
2019-Oct-11 12:22N 40°50' E 014°16'0 0.0
2019-Oct-11 11:58N 40°50' E 014°16'0 0.0
2019-Oct-11 11:28N 40°50' E 014°16'0 0.0
2019-Oct-11 10:55N 40°50' E 014°16'0 0.0
2019-Oct-11 10:25N 40°50' E 014°16'0 0.0
2019-Oct-11 09:55N 40°50' E 014°16'0 0.0
2019-Oct-11 09:22N 40°50' E 014°16'0 0.0
2019-Oct-11 08:58N 40°50' E 014°16'0 0.0
2019-Oct-11 08:28N 40°50' E 014°16'0 0.0
2019-Oct-11 07:58N 40°50' E 014°16'0 0.0
2019-Oct-11 07:28N 40°50' E 014°16'0 0.0
2019-Oct-11 06:58N 40°50' E 014°16'0 0.0
2019-Oct-11 06:28N 40°50' E 014°16'0 0.0
2019-Oct-11 05:58N 40°50' E 014°16'0 0.0
2019-Oct-11 05:28N 40°50' E 014°16'0 0.0
2019-Oct-11 05:00N 40°50' E 014°16'1 1.0
2019-Oct-11 04:31N 40°50' E 014°16'2 4.2
2019-Oct-11 04:00N 40°48' E 014°17'611.3
2019-Oct-11 03:30N 40°43' E 014°14'713.6
2019-Oct-11 03:00N 40°36' E 014°11'713.4
2019-Oct-11 02:30N 40°30' E 014°11'815.0
2019-Oct-11 02:00N 40°23' E 014°16'815.4
2019-Oct-11 01:30N 40°16' E 014°21'815.5
2019-Oct-11 01:00N 40°10' E 014°25'815.0
2019-Oct-11 00:30N 40°03' E 014°30'914.9
2019-Oct-10 23:54N 39°55' E 014°36'6315.3
2019-Oct-10 19:45N 38°59' E 015°15'615.4
2019-Oct-10 19:21N 38°54' E 015°19'515.5
2019-Oct-10 19:00N 38°49' E 015°22'815.6
2019-Oct-10 18:30N 38°42' E 015°27'815.6
2019-Oct-10 17:59N 38°35' E 015°32'815.8
2019-Oct-10 17:30N 38°29' E 015°36'815.6
2019-Oct-10 17:00N 38°22' E 015°41'713.3
2019-Oct-10 16:30N 38°15' E 015°40'612.2
2019-Oct-10 16:00N 38°12' E 015°33'0 0.0
2019-Oct-10 15:29N 38°12' E 015°33'0 0.0
2019-Oct-10 14:56N 38°12' E 015°33'0 0.0
2019-Oct-10 14:29N 38°12' E 015°33'0 0.0
2019-Oct-10 13:59N 38°12' E 015°33'0 0.0
2019-Oct-10 13:29N 38°12' E 015°33'0 0.0
2019-Oct-10 12:59N 38°12' E 015°33'0 0.0
2019-Oct-10 12:26N 38°12' E 015°33'0 0.0
2019-Oct-10 11:59N 38°12' E 015°33'0 0.0
2019-Oct-10 11:26N 38°12' E 015°33'0 0.0
2019-Oct-10 10:59N 38°12' E 015°33'0 0.0
2019-Oct-10 10:29N 38°12' E 015°33'0 0.0
2019-Oct-10 09:50N 38°12' E 015°33'0 0.0
2019-Oct-10 09:20N 38°12' E 015°33'0 0.0
2019-Oct-10 08:56N 38°12' E 015°33'0 0.0
2019-Oct-10 08:26N 38°12' E 015°33'0 0.0
2019-Oct-10 07:59N 38°12' E 015°33'0 0.0
2019-Oct-10 07:26N 38°12' E 015°33'0 0.0
2019-Oct-10 06:59N 38°12' E 015°33'0 0.0
2019-Oct-10 06:29N 38°12' E 015°33'0 0.0
2019-Oct-10 05:44N 38°12' E 015°33'0 0.0
2019-Oct-10 05:08N 38°12' E 015°33'0 0.0
2019-Oct-10 05:00N 38°12' E 015°33'2 4.0
2019-Oct-10 04:30N 38°13' E 015°35'612.6
2019-Oct-10 04:01N 38°07' E 015°36'815.1
2019-Oct-10 03:31N 37°59' E 015°35'917.6
2019-Oct-10 03:01N 37°51' E 015°34'917.9
2019-Oct-10 02:31N 37°42' E 015°32'1019.0
2019-Oct-10 02:00N 37°32' E 015°31'919.0
2019-Oct-10 01:30N 37°23' E 015°29'918.0
2019-Oct-10 01:00N 37°14' E 015°29'37110.4
2019-Oct-08 13:12N 35°45' E 022°58'620.7
2019-Oct-08 12:56N 35°45' E 023°05'121 6.2
2019-Oct-07 17:32N 37°06' E 024°57'012.4
2019-Oct-07 17:30N 37°06' E 024°57'612.1
2019-Oct-07 17:00N 37°12' E 024°60'612.2
2019-Oct-07 16:30N 37°17' E 025°03'612.2
2019-Oct-07 16:00N 37°22' E 025°07'611.9
2019-Oct-07 15:30N 37°27' E 025°11'612.1
2019-Oct-07 15:00N 37°28' E 025°19'  
Track history (hours):
 
Tides and Currents Weather Stations Pressure Air Temp Water Temp Dewpoint Dewpoint Depression Visibility Wind Speed Wind Dir Waves Ship Positions

Norwegian Jade

Last reported at 2019-Oct-17 15:00 UTC. Time now 2019-Oct-17 15:07 UTC.
Position N 37°29' E 025°17'.

Length 294 m; draft 8.6 m.

Type: Passenger vessel. MMSI: 308416000.

Date/timePositionNaut miles runAvg speedWind from/ knotsBaromVisibWave heightAir tempDewpointWater temp
2019-Oct-17 15:00N 37°29' E 025°17'2 3.8
2019-Oct-17 14:26N 37°28' E 025°19'0 0.0
2019-Oct-17 13:59N 37°28' E 025°19'0 0.0
2019-Oct-17 13:26N 37°28' E 025°19'0 0.0
2019-Oct-17 12:56N 37°28' E 025°19'0 0.0
2019-Oct-17 12:29N 37°28' E 025°19'0 0.0
2019-Oct-17 11:56N 37°28' E 025°19'0 0.0
2019-Oct-17 11:29N 37°28' E 025°19'0 0.0
2019-Oct-17 10:53N 37°28' E 025°19'0 0.0
2019-Oct-17 10:26N 37°28' E 025°19'0 0.0
2019-Oct-17 09:59N 37°28' E 025°19'0 0.0
2019-Oct-17 09:29N 37°28' E 025°19'0 0.0
2019-Oct-17 08:56N 37°28' E 025°19'0 0.0
2019-Oct-17 08:29N 37°28' E 025°19'0 0.0
2019-Oct-17 07:59N 37°28' E 025°19'0 0.0
2019-Oct-17 07:26N 37°28' E 025°19'0 0.0
2019-Oct-17 06:59N 37°28' E 025°19'0 0.0
2019-Oct-17 06:29N 37°28' E 025°19'0 0.0
2019-Oct-17 05:59N 37°28' E 025°19'0 0.0
2019-Oct-17 05:29N 37°28' E 025°19'0 0.0
2019-Oct-17 04:59N 37°28' E 025°19'0 0.0
2019-Oct-17 04:26N 37°28' E 025°19'0 0.0
2019-Oct-17 04:00N 37°28' E 025°19'1 2.6
2019-Oct-17 03:30N 37°27' E 025°18'5 9.6
2019-Oct-17 03:00N 37°29' E 025°12'510.3
2019-Oct-17 02:30N 37°30' E 025°06'5 9.5
2019-Oct-17 02:00N 37°31' E 024°60'510.0
2019-Oct-17 01:30N 37°32' E 024°54'4 8.6
2019-Oct-17 01:00N 37°32' E 024°49'27 8.7
2019-Oct-16 21:56N 37°29' E 024°15'13 7.7
2019-Oct-16 20:13N 37°33' E 023°59'2 7.6
2019-Oct-16 19:56N 37°33' E 023°57'3 7.9
2019-Oct-16 19:30N 37°35' E 023°53'4 8.2
2019-Oct-16 19:00N 37°37' E 023°48'4 8.1
2019-Oct-16 18:30N 37°39' E 023°44'4 7.8
2019-Oct-16 18:00N 37°42' E 023°41'4 8.2
2019-Oct-16 17:30N 37°46' E 023°39'4 8.0
2019-Oct-16 17:00N 37°50' E 023°37'4 7.9
2019-Oct-16 16:30N 37°54' E 023°37'3 6.1
2019-Oct-16 16:00N 37°56' E 023°38'0 0.4
2019-Oct-16 15:29N 37°56' E 023°38'0 0.0
2019-Oct-16 14:59N 37°56' E 023°38'0 0.0
2019-Oct-16 14:29N 37°56' E 023°38'0 0.0
2019-Oct-16 13:59N 37°56' E 023°38'0 0.0
2019-Oct-16 13:29N 37°56' E 023°38'0 0.0
2019-Oct-16 12:59N 37°56' E 023°38'0 0.0
2019-Oct-16 12:29N 37°56' E 023°38'0 0.0
2019-Oct-16 11:59N 37°56' E 023°38'0 0.0
2019-Oct-16 11:26N 37°56' E 023°38'0 0.0
2019-Oct-16 09:35N 37°56' E 023°38'0 0.0
2019-Oct-16 05:47N 37°56' E 023°38'0 0.0
2019-Oct-16 05:29N 37°56' E 023°38'0 0.0
2019-Oct-16 04:59N 37°56' E 023°38'0 0.0
2019-Oct-16 04:26N 37°56' E 023°38'0 0.0
2019-Oct-16 03:59N 37°56' E 023°38'0 0.1
2019-Oct-16 03:31N 37°56' E 023°38'2 3.4
2019-Oct-16 03:01N 37°55' E 023°37'4 8.6
2019-Oct-16 02:31N 37°51' E 023°39'5 9.5
2019-Oct-16 02:01N 37°47' E 023°42'714.7
2019-Oct-16 01:31N 37°40' E 023°45'816.8
2019-Oct-16 01:00N 37°32' E 023°47'916.2
2019-Oct-16 00:26N 37°24' E 023°53'375 9.2
2019-Oct-14 07:38N 37°49' E 016°01'320.0
2019-Oct-14 07:30N 37°50' E 015°58'1020.1
2019-Oct-14 07:00N 37°52' E 015°45'1020.2
2019-Oct-14 06:30N 37°57' E 015°34'1019.8
2019-Oct-14 06:00N 38°07' E 015°35'917.7
2019-Oct-14 05:30N 38°15' E 015°38'917.5
2019-Oct-14 05:00N 38°24' E 015°37'1120.9
2019-Oct-14 04:30N 38°33' E 015°31'1019.3
2019-Oct-14 04:00N 38°41' E 015°25'1019.8
2019-Oct-14 03:30N 38°51' E 015°20'1020.0
2019-Oct-14 03:00N 38°58' E 015°12'8319.7
2019-Oct-13 22:46N 39°57' E 013°56'4222.7
2019-Oct-13 20:56N 40°27' E 013°18'2123.3
2019-Oct-13 20:01N 40°42' E 012°58'100 5.7
2019-Oct-13 02:20N 42°02' E 011°37'616.8
2019-Oct-13 02:00N 42°02' E 011°30'1017.0
2019-Oct-13 01:26N 42°03' E 011°17'717.2
2019-Oct-13 01:01N 42°04' E 011°07'917.0
2019-Oct-13 00:30N 42°07' E 010°57'1517.1
2019-Oct-12 23:36N 42°18' E 010°42'417.1
2019-Oct-12 23:24N 42°21' E 010°39'717.3
2019-Oct-12 22:58N 42°26' E 010°32'916.8
2019-Oct-12 22:24N 42°32' E 010°22'717.0
2019-Oct-12 22:01N 42°37' E 010°15'1316.7
2019-Oct-12 21:13N 42°44' E 010°01'417.1
2019-Oct-12 21:00N 42°48' E 010°01'917.3
2019-Oct-12 20:30N 42°57' E 010°03'917.4
2019-Oct-12 20:00N 43°05' E 010°05'917.4
2019-Oct-12 19:30N 43°14' E 010°07'816.9
2019-Oct-12 19:01N 43°22' E 010°09'815.9
2019-Oct-12 18:30N 43°30' E 010°11'5 9.9
2019-Oct-12 18:00N 43°32' E 010°17'1 1.5
2019-Oct-12 17:30N 43°33' E 010°18'0 0.0
2019-Oct-12 17:00N 43°33' E 010°18'0 0.0
2019-Oct-12 16:30N 43°33' E 010°18'0 0.0
2019-Oct-12 16:00N 43°33' E 010°18'0 0.0
2019-Oct-12 15:30N 43°33' E 010°18'0 0.0
2019-Oct-12 15:00N 43°33' E 010°18'0 0.0
2019-Oct-12 14:30N 43°33' E 010°18'0 0.0
2019-Oct-12 14:00N 43°33' E 010°18'0 0.0
2019-Oct-12 13:30N 43°33' E 010°18'0 0.0
2019-Oct-12 13:00N 43°33' E 010°18'0 0.0
2019-Oct-12 12:30N 43°33' E 010°18'0 0.0
2019-Oct-12 12:00N 43°33' E 010°18'0 0.0
2019-Oct-12 11:30N 43°33' E 010°18'0 0.0
2019-Oct-12 11:00N 43°33' E 010°18'0 0.0
2019-Oct-12 10:30N 43°33' E 010°18'0 0.0
2019-Oct-12 10:00N 43°33' E 010°18'0 0.0
2019-Oct-12 09:30N 43°33' E 010°18'0 0.0
2019-Oct-12 09:00N 43°33' E 010°18'0 0.0
2019-Oct-12 08:30N 43°33' E 010°18'0 0.0
2019-Oct-12 08:00N 43°33' E 010°18'0 0.0
2019-Oct-12 07:30N 43°33' E 010°18'0 0.0
2019-Oct-12 07:00N 43°33' E 010°18'0 0.1
2019-Oct-12 06:30N 43°33' E 010°18'2 3.9
2019-Oct-12 06:00N 43°32' E 010°16'0 0.8
2019-Oct-12 05:30N 43°31' E 010°15'612.2
2019-Oct-12 05:01N 43°26' E 010°12'917.5
2019-Oct-12 04:31N 43°17' E 010°09'917.4
2019-Oct-12 04:00N 43°09' E 010°07'816.8
2019-Oct-12 03:30N 43°01' E 010°05'918.4
2019-Oct-12 03:01N 42°51' E 010°03'1019.5
2019-Oct-12 02:31N 42°42' E 010°06'1020.5
2019-Oct-12 02:01N 42°35' E 010°16'1120.6
2019-Oct-12 01:29N 42°28' E 010°28'1020.3
2019-Oct-12 01:01N 42°22' E 010°37'1120.8
2019-Oct-12 00:29N 42°14' E 010°47'15122.1
2019-Oct-11 17:40N 40°39' E 013°24'2122.9
2019-Oct-11 16:46N 40°39' E 013°51'521.5
2019-Oct-11 16:30N 40°39' E 013°58'1019.3
2019-Oct-11 16:00N 40°43' E 014°10'816.9
2019-Oct-11 15:30N 40°50' E 014°17'1 1.8
2019-Oct-11 14:58N 40°50' E 014°16'0 0.0
2019-Oct-11 14:28N 40°50' E 014°16'0 0.0
2019-Oct-11 13:58N 40°50' E 014°16'0 0.0
2019-Oct-11 13:25N 40°50' E 014°16'0 0.0
2019-Oct-11 12:58N 40°50' E 014°16'0 0.0
2019-Oct-11 12:22N 40°50' E 014°16'0 0.0
2019-Oct-11 11:58N 40°50' E 014°16'0 0.0
2019-Oct-11 11:28N 40°50' E 014°16'0 0.0
2019-Oct-11 10:55N 40°50' E 014°16'0 0.0
2019-Oct-11 10:25N 40°50' E 014°16'0 0.0
2019-Oct-11 09:55N 40°50' E 014°16'0 0.0
2019-Oct-11 09:22N 40°50' E 014°16'0 0.0
2019-Oct-11 08:58N 40°50' E 014°16'0 0.0
2019-Oct-11 08:28N 40°50' E 014°16'0 0.0
2019-Oct-11 07:58N 40°50' E 014°16'0 0.0
2019-Oct-11 07:28N 40°50' E 014°16'0 0.0
2019-Oct-11 06:58N 40°50' E 014°16'0 0.0
2019-Oct-11 06:28N 40°50' E 014°16'0 0.0
2019-Oct-11 05:58N 40°50' E 014°16'0 0.0
2019-Oct-11 05:28N 40°50' E 014°16'0 0.0
2019-Oct-11 05:00N 40°50' E 014°16'1 1.0
2019-Oct-11 04:31N 40°50' E 014°16'2 4.2
2019-Oct-11 04:00N 40°48' E 014°17'611.3
2019-Oct-11 03:30N 40°43' E 014°14'713.6
2019-Oct-11 03:00N 40°36' E 014°11'713.4
2019-Oct-11 02:30N 40°30' E 014°11'815.0
2019-Oct-11 02:00N 40°23' E 014°16'815.4
2019-Oct-11 01:30N 40°16' E 014°21'815.5
2019-Oct-11 01:00N 40°10' E 014°25'815.0
2019-Oct-11 00:30N 40°03' E 014°30'914.9
2019-Oct-10 23:54N 39°55' E 014°36'6315.3
2019-Oct-10 19:45N 38°59' E 015°15'615.4
2019-Oct-10 19:21N 38°54' E 015°19'515.5
2019-Oct-10 19:00N 38°49' E 015°22'815.6
2019-Oct-10 18:30N 38°42' E 015°27'815.6
2019-Oct-10 17:59N 38°35' E 015°32'815.8
2019-Oct-10 17:30N 38°29' E 015°36'815.6
2019-Oct-10 17:00N 38°22' E 015°41'713.3
2019-Oct-10 16:30N 38°15' E 015°40'612.2
2019-Oct-10 16:00N 38°12' E 015°33'0 0.0
2019-Oct-10 15:29N 38°12' E 015°33'0 0.0
2019-Oct-10 14:56N 38°12' E 015°33'0 0.0
2019-Oct-10 14:29N 38°12' E 015°33'0 0.0
2019-Oct-10 13:59N 38°12' E 015°33'0 0.0
2019-Oct-10 13:29N 38°12' E 015°33'0 0.0
2019-Oct-10 12:59N 38°12' E 015°33'0 0.0
2019-Oct-10 12:26N 38°12' E 015°33'0 0.0
2019-Oct-10 11:59N 38°12' E 015°33'0 0.0
2019-Oct-10 11:26N 38°12' E 015°33'0 0.0
2019-Oct-10 10:59N 38°12' E 015°33'0 0.0
2019-Oct-10 10:29N 38°12' E 015°33'0 0.0
2019-Oct-10 09:50N 38°12' E 015°33'0 0.0
2019-Oct-10 09:20N 38°12' E 015°33'0 0.0
2019-Oct-10 08:56N 38°12' E 015°33'0 0.0
2019-Oct-10 08:26N 38°12' E 015°33'0 0.0
2019-Oct-10 07:59N 38°12' E 015°33'0 0.0
2019-Oct-10 07:26N 38°12' E 015°33'0 0.0
2019-Oct-10 06:59N 38°12' E 015°33'0 0.0
2019-Oct-10 06:29N 38°12' E 015°33'0 0.0
2019-Oct-10 05:44N 38°12' E 015°33'0 0.0
2019-Oct-10 05:08N 38°12' E 015°33'0 0.0
2019-Oct-10 05:00N 38°12' E 015°33'2 4.0
2019-Oct-10 04:30N 38°13' E 015°35'612.6
2019-Oct-10 04:01N 38°07' E 015°36'815.1
2019-Oct-10 03:31N 37°59' E 015°35'917.6
2019-Oct-10 03:01N 37°51' E 015°34'917.9
2019-Oct-10 02:31N 37°42' E 015°32'1019.0
2019-Oct-10 02:00N 37°32' E 015°31'919.0
2019-Oct-10 01:30N 37°23' E 015°29'918.0
2019-Oct-10 01:00N 37°14' E 015°29'37110.4
2019-Oct-08 13:12N 35°45' E 022°58'620.7
2019-Oct-08 12:56N 35°45' E 023°05'121 6.2
2019-Oct-07 17:32N 37°06' E 024°57'012.4
2019-Oct-07 17:30N 37°06' E 024°57'612.1
2019-Oct-07 17:00N 37°12' E 024°60'612.2
2019-Oct-07 16:30N 37°17' E 025°03'612.2
2019-Oct-07 16:00N 37°22' E 025°07'611.9
2019-Oct-07 15:30N 37°27' E 025°11'612.1
2019-Oct-07 15:00N 37°28' E 025°19'  

Dump ship's entire track history